sensor_id;sensor_type;location;lat;lon;timestamp;P1;durP1;ratioP1;P2;durP2;ratioP2
39066;SDS011;24821;51.988;6.020;2022-12-04T00:01:23;25.43;;;17.93;;
39066;SDS011;24821;51.988;6.020;2022-12-04T00:04:00;27.17;;;19.17;;
39066;SDS011;24821;51.988;6.020;2022-12-04T00:06:26;19.50;;;15.63;;
39066;SDS011;24821;51.988;6.020;2022-12-04T00:08:52;22.27;;;14.23;;
39066;SDS011;24821;51.988;6.020;2022-12-04T00:11:20;20.67;;;15.97;;
39066;SDS011;24821;51.988;6.020;2022-12-04T00:13:47;31.30;;;18.00;;
39066;SDS011;24821;51.988;6.020;2022-12-04T00:16:17;19.10;;;17.03;;
39066;SDS011;24821;51.988;6.020;2022-12-04T00:18:45;23.93;;;17.03;;
39066;SDS011;24821;51.988;6.020;2022-12-04T00:21:12;35.87;;;21.07;;
39066;SDS011;24821;51.988;6.020;2022-12-04T00:23:38;29.23;;;17.80;;
39066;SDS011;24821;51.988;6.020;2022-12-04T00:26:05;17.73;;;16.13;;
39066;SDS011;24821;51.988;6.020;2022-12-04T00:28:32;19.80;;;17.73;;
39066;SDS011;24821;51.988;6.020;2022-12-04T00:30:58;20.70;;;16.70;;
39066;SDS011;24821;51.988;6.020;2022-12-04T00:33:24;33.00;;;17.73;;
39066;SDS011;24821;51.988;6.020;2022-12-04T00:35:59;21.97;;;17.87;;
39066;SDS011;24821;51.988;6.020;2022-12-04T00:38:27;22.93;;;16.17;;
39066;SDS011;24821;51.988;6.020;2022-12-04T00:40:53;19.87;;;17.03;;
39066;SDS011;24821;51.988;6.020;2022-12-04T00:43:18;20.00;;;15.97;;
39066;SDS011;24821;51.988;6.020;2022-12-04T00:45:44;25.73;;;16.53;;
39066;SDS011;24821;51.988;6.020;2022-12-04T00:48:10;20.00;;;16.63;;
39066;SDS011;24821;51.988;6.020;2022-12-04T00:50:36;18.73;;;15.33;;
39066;SDS011;24821;51.988;6.020;2022-12-04T00:53:01;16.80;;;15.10;;
39066;SDS011;24821;51.988;6.020;2022-12-04T00:55:27;22.20;;;18.80;;
39066;SDS011;24821;51.988;6.020;2022-12-04T00:57:53;28.23;;;15.97;;
39066;SDS011;24821;51.988;6.020;2022-12-04T01:00:18;20.67;;;15.47;;
39066;SDS011;24821;51.988;6.020;2022-12-04T01:02:44;26.37;;;17.47;;
39066;SDS011;24821;51.988;6.020;2022-12-04T01:05:10;21.23;;;17.20;;
39066;SDS011;24821;51.988;6.020;2022-12-04T01:07:36;23.97;;;17.00;;
39066;SDS011;24821;51.988;6.020;2022-12-04T01:10:02;24.47;;;17.63;;
39066;SDS011;24821;51.988;6.020;2022-12-04T01:12:29;30.00;;;14.50;;
39066;SDS011;24821;51.988;6.020;2022-12-04T01:14:55;31.07;;;16.97;;
39066;SDS011;24821;51.988;6.020;2022-12-04T01:17:21;21.13;;;16.47;;
39066;SDS011;24821;51.988;6.020;2022-12-04T01:19:46;23.67;;;16.97;;
39066;SDS011;24821;51.988;6.020;2022-12-04T01:22:12;22.63;;;15.53;;
39066;SDS011;24821;51.988;6.020;2022-12-04T01:24:37;20.97;;;17.47;;
39066;SDS011;24821;51.988;6.020;2022-12-04T01:27:03;21.77;;;17.90;;
39066;SDS011;24821;51.988;6.020;2022-12-04T01:29:28;33.27;;;18.63;;
39066;SDS011;24821;51.988;6.020;2022-12-04T01:31:54;21.60;;;16.03;;
39066;SDS011;24821;51.988;6.020;2022-12-04T01:34:20;30.50;;;18.00;;
39066;SDS011;24821;51.988;6.020;2022-12-04T01:36:45;25.60;;;19.83;;
39066;SDS011;24821;51.988;6.020;2022-12-04T01:39:12;29.00;;;18.53;;
39066;SDS011;24821;51.988;6.020;2022-12-04T01:41:37;35.13;;;18.93;;
39066;SDS011;24821;51.988;6.020;2022-12-04T01:44:16;21.43;;;17.53;;
39066;SDS011;24821;51.988;6.020;2022-12-04T01:46:44;28.93;;;19.10;;
39066;SDS011;24821;51.988;6.020;2022-12-04T01:49:18;16.37;;;14.67;;
39066;SDS011;24821;51.988;6.020;2022-12-04T01:54:46;37.20;;;17.73;;
39066;SDS011;24821;51.988;6.020;2022-12-04T01:57:19;22.53;;;17.57;;
39066;SDS011;24821;51.988;6.020;2022-12-04T01:59:59;18.40;;;15.47;;
39066;SDS011;24821;51.988;6.020;2022-12-04T02:02:29;19.83;;;17.60;;
39066;SDS011;24821;51.988;6.020;2022-12-04T02:05:00;29.47;;;22.00;;
39066;SDS011;24821;51.988;6.020;2022-12-04T02:07:27;26.63;;;19.87;;
39066;SDS011;24821;51.988;6.020;2022-12-04T02:09:53;25.43;;;19.00;;
39066;SDS011;24821;51.988;6.020;2022-12-04T02:29:36;20.93;;;16.13;;
39066;SDS011;24821;51.988;6.020;2022-12-04T02:37:17;32.20;;;22.23;;
39066;SDS011;24821;51.988;6.020;2022-12-04T02:39:52;23.57;;;16.27;;
39066;SDS011;24821;51.988;6.020;2022-12-04T02:45:42;26.27;;;16.67;;
39066;SDS011;24821;51.988;6.020;2022-12-04T02:48:10;26.70;;;17.93;;
39066;SDS011;24821;51.988;6.020;2022-12-04T02:50:40;19.63;;;14.03;;
39066;SDS011;24821;51.988;6.020;2022-12-04T02:53:16;23.17;;;17.13;;
39066;SDS011;24821;51.988;6.020;2022-12-04T02:55:52;22.80;;;17.00;;
39066;SDS011;24821;51.988;6.020;2022-12-04T02:58:31;20.03;;;16.77;;
39066;SDS011;24821;51.988;6.020;2022-12-04T03:01:02;21.37;;;15.77;;
39066;SDS011;24821;51.988;6.020;2022-12-04T03:03:43;26.93;;;17.67;;
39066;SDS011;24821;51.988;6.020;2022-12-04T03:06:31;26.77;;;17.20;;
39066;SDS011;24821;51.988;6.020;2022-12-04T03:09:34;23.17;;;17.90;;
39066;SDS011;24821;51.988;6.020;2022-12-04T03:12:04;17.35;;;14.70;;
39066;SDS011;24821;51.988;6.020;2022-12-04T03:14:57;19.07;;;14.83;;
39066;SDS011;24821;51.988;6.020;2022-12-04T03:17:28;21.20;;;17.17;;
39066;SDS011;24821;51.988;6.020;2022-12-04T03:20:04;20.43;;;17.80;;
39066;SDS011;24821;51.988;6.020;2022-12-04T03:22:33;18.13;;;15.93;;
39066;SDS011;24821;51.988;6.020;2022-12-04T03:25:03;23.47;;;17.60;;
39066;SDS011;24821;51.988;6.020;2022-12-04T03:27:42;32.77;;;20.73;;
39066;SDS011;24821;51.988;6.020;2022-12-04T03:30:15;25.58;;;17.20;;
39066;SDS011;24821;51.988;6.020;2022-12-04T03:38:25;17.23;;;15.47;;
39066;SDS011;24821;51.988;6.020;2022-12-04T03:41:04;22.53;;;17.10;;
39066;SDS011;24821;51.988;6.020;2022-12-04T03:43:51;20.53;;;16.60;;
39066;SDS011;24821;51.988;6.020;2022-12-04T03:49:22;18.77;;;16.83;;
39066;SDS011;24821;51.988;6.020;2022-12-04T03:54:59;26.40;;;17.30;;
39066;SDS011;24821;51.988;6.020;2022-12-04T03:57:31;22.37;;;16.30;;
39066;SDS011;24821;51.988;6.020;2022-12-04T04:00:06;20.73;;;15.77;;
39066;SDS011;24821;51.988;6.020;2022-12-04T04:02:42;16.93;;;15.17;;
39066;SDS011;24821;51.988;6.020;2022-12-04T04:05:14;24.33;;;15.68;;
39066;SDS011;24821;51.988;6.020;2022-12-04T04:07:45;27.93;;;18.07;;
39066;SDS011;24821;51.988;6.020;2022-12-04T04:10:16;21.63;;;17.77;;
39066;SDS011;24821;51.988;6.020;2022-12-04T04:12:46;24.77;;;17.47;;
39066;SDS011;24821;51.988;6.020;2022-12-04T04:15:36;21.10;;;17.33;;
39066;SDS011;24821;51.988;6.020;2022-12-04T04:18:26;32.37;;;15.90;;
39066;SDS011;24821;51.988;6.020;2022-12-04T04:21:12;30.70;;;16.67;;
39066;SDS011;24821;51.988;6.020;2022-12-04T04:24:00;31.17;;;18.80;;
39066;SDS011;24821;51.988;6.020;2022-12-04T04:26:39;30.80;;;18.87;;
39066;SDS011;24821;51.988;6.020;2022-12-04T04:29:08;30.03;;;21.10;;
39066;SDS011;24821;51.988;6.020;2022-12-04T04:40:08;24.33;;;17.73;;
39066;SDS011;24821;51.988;6.020;2022-12-04T04:42:48;18.47;;;15.47;;
39066;SDS011;24821;51.988;6.020;2022-12-04T04:45:16;16.83;;;15.13;;
39066;SDS011;24821;51.988;6.020;2022-12-04T04:47:48;17.87;;;15.50;;
39066;SDS011;24821;51.988;6.020;2022-12-04T04:50:17;19.77;;;15.87;;
39066;SDS011;24821;51.988;6.020;2022-12-04T04:52:45;20.63;;;15.63;;
39066;SDS011;24821;51.988;6.020;2022-12-04T04:55:14;23.37;;;16.90;;
39066;SDS011;24821;51.988;6.020;2022-12-04T04:57:41;23.97;;;16.80;;
39066;SDS011;24821;51.988;6.020;2022-12-04T05:00:09;27.23;;;18.57;;
39066;SDS011;24821;51.988;6.020;2022-12-04T05:02:37;27.23;;;19.47;;
39066;SDS011;24821;51.988;6.020;2022-12-04T05:05:02;20.23;;;15.37;;
39066;SDS011;24821;51.988;6.020;2022-12-04T05:07:30;31.60;;;19.00;;
39066;SDS011;24821;51.988;6.020;2022-12-04T05:09:55;21.33;;;16.90;;
39066;SDS011;24821;51.988;6.020;2022-12-04T05:12:21;22.73;;;16.23;;
39066;SDS011;24821;51.988;6.020;2022-12-04T05:14:47;27.63;;;15.90;;
39066;SDS011;24821;51.988;6.020;2022-12-04T05:17:13;33.50;;;18.50;;
39066;SDS011;24821;51.988;6.020;2022-12-04T05:19:39;21.40;;;15.77;;
39066;SDS011;24821;51.988;6.020;2022-12-04T05:22:23;20.30;;;16.70;;
39066;SDS011;24821;51.988;6.020;2022-12-04T05:24:51;24.73;;;15.30;;
39066;SDS011;24821;51.988;6.020;2022-12-04T05:27:17;36.23;;;17.10;;
39066;SDS011;24821;51.988;6.020;2022-12-04T05:29:43;28.43;;;18.67;;
39066;SDS011;24821;51.988;6.020;2022-12-04T05:32:09;18.30;;;14.43;;
39066;SDS011;24821;51.988;6.020;2022-12-04T05:34:34;28.80;;;15.37;;
39066;SDS011;24821;51.988;6.020;2022-12-04T05:37:00;15.67;;;14.03;;
39066;SDS011;24821;51.988;6.020;2022-12-04T05:39:26;17.27;;;15.43;;
39066;SDS011;24821;51.988;6.020;2022-12-04T05:41:51;24.70;;;16.97;;
39066;SDS011;24821;51.988;6.020;2022-12-04T05:44:17;20.77;;;15.60;;
39066;SDS011;24821;51.988;6.020;2022-12-04T05:46:42;20.43;;;16.80;;
39066;SDS011;24821;51.988;6.020;2022-12-04T05:49:08;16.60;;;14.10;;
39066;SDS011;24821;51.988;6.020;2022-12-04T05:51:33;19.77;;;17.57;;
39066;SDS011;24821;51.988;6.020;2022-12-04T05:53:59;23.10;;;15.33;;
39066;SDS011;24821;51.988;6.020;2022-12-04T05:56:24;24.40;;;17.07;;
39066;SDS011;24821;51.988;6.020;2022-12-04T05:58:50;16.60;;;14.37;;
39066;SDS011;24821;51.988;6.020;2022-12-04T06:01:16;16.00;;;14.33;;
39066;SDS011;24821;51.988;6.020;2022-12-04T06:03:44;26.03;;;18.03;;
39066;SDS011;24821;51.988;6.020;2022-12-04T06:06:14;17.90;;;13.47;;
39066;SDS011;24821;51.988;6.020;2022-12-04T06:08:41;24.97;;;16.47;;
39066;SDS011;24821;51.988;6.020;2022-12-04T06:11:14;18.03;;;15.23;;
39066;SDS011;24821;51.988;6.020;2022-12-04T06:13:42;26.40;;;15.70;;
39066;SDS011;24821;51.988;6.020;2022-12-04T06:16:15;21.63;;;14.73;;
39066;SDS011;24821;51.988;6.020;2022-12-04T06:18:42;21.23;;;14.55;;
39066;SDS011;24821;51.988;6.020;2022-12-04T06:21:08;18.63;;;16.03;;
39066;SDS011;24821;51.988;6.020;2022-12-04T06:23:35;23.00;;;15.40;;
39066;SDS011;24821;51.988;6.020;2022-12-04T06:26:02;32.20;;;15.40;;
39066;SDS011;24821;51.988;6.020;2022-12-04T06:28:29;25.67;;;14.07;;
39066;SDS011;24821;51.988;6.020;2022-12-04T06:30:55;28.33;;;17.80;;
39066;SDS011;24821;51.988;6.020;2022-12-04T06:33:24;20.03;;;16.90;;
39066;SDS011;24821;51.988;6.020;2022-12-04T06:35:56;19.87;;;16.07;;
39066;SDS011;24821;51.988;6.020;2022-12-04T06:38:26;17.20;;;13.20;;
39066;SDS011;24821;51.988;6.020;2022-12-04T06:40:51;22.37;;;15.60;;
39066;SDS011;24821;51.988;6.020;2022-12-04T06:43:17;15.17;;;12.63;;
39066;SDS011;24821;51.988;6.020;2022-12-04T06:45:42;17.73;;;14.00;;
39066;SDS011;24821;51.988;6.020;2022-12-04T06:48:08;20.00;;;14.27;;
39066;SDS011;24821;51.988;6.020;2022-12-04T06:50:33;15.53;;;12.50;;
39066;SDS011;24821;51.988;6.020;2022-12-04T06:52:59;17.83;;;15.67;;
39066;SDS011;24821;51.988;6.020;2022-12-04T06:55:25;18.33;;;15.80;;
39066;SDS011;24821;51.988;6.020;2022-12-04T06:57:50;20.93;;;15.67;;
39066;SDS011;24821;51.988;6.020;2022-12-04T07:00:16;15.80;;;14.20;;
39066;SDS011;24821;51.988;6.020;2022-12-04T07:02:41;35.73;;;15.27;;
39066;SDS011;24821;51.988;6.020;2022-12-04T07:05:07;20.33;;;14.33;;
39066;SDS011;24821;51.988;6.020;2022-12-04T07:07:33;23.40;;;14.80;;
39066;SDS011;24821;51.988;6.020;2022-12-04T07:09:58;29.37;;;16.27;;
39066;SDS011;24821;51.988;6.020;2022-12-04T07:12:24;20.07;;;15.93;;
39066;SDS011;24821;51.988;6.020;2022-12-04T07:14:49;23.10;;;15.33;;
39066;SDS011;24821;51.988;6.020;2022-12-04T07:17:15;20.97;;;14.83;;
39066;SDS011;24821;51.988;6.020;2022-12-04T07:19:40;19.23;;;15.57;;
39066;SDS011;24821;51.988;6.020;2022-12-04T07:22:06;30.33;;;15.33;;
39066;SDS011;24821;51.988;6.020;2022-12-04T07:24:33;17.90;;;12.40;;
39066;SDS011;24821;51.988;6.020;2022-12-04T07:27:00;16.20;;;13.17;;
39066;SDS011;24821;51.988;6.020;2022-12-04T07:29:25;25.37;;;15.53;;
39066;SDS011;24821;51.988;6.020;2022-12-04T07:31:51;17.00;;;12.03;;
39066;SDS011;24821;51.988;6.020;2022-12-04T07:34:16;22.13;;;14.67;;
39066;SDS011;24821;51.988;6.020;2022-12-04T07:36:42;28.77;;;17.60;;
39066;SDS011;24821;51.988;6.020;2022-12-04T07:39:07;27.53;;;14.07;;
39066;SDS011;24821;51.988;6.020;2022-12-04T07:41:33;21.67;;;14.63;;
39066;SDS011;24821;51.988;6.020;2022-12-04T07:43:59;15.47;;;13.27;;
39066;SDS011;24821;51.988;6.020;2022-12-04T07:46:25;20.03;;;15.37;;
39066;SDS011;24821;51.988;6.020;2022-12-04T07:48:53;24.60;;;17.10;;
39066;SDS011;24821;51.988;6.020;2022-12-04T07:51:21;26.07;;;16.23;;
39066;SDS011;24821;51.988;6.020;2022-12-04T07:53:49;20.43;;;14.23;;
39066;SDS011;24821;51.988;6.020;2022-12-04T07:56:15;23.67;;;16.17;;
39066;SDS011;24821;51.988;6.020;2022-12-04T07:58:41;24.90;;;18.03;;
39066;SDS011;24821;51.988;6.020;2022-12-04T08:01:08;18.00;;;14.90;;
39066;SDS011;24821;51.988;6.020;2022-12-04T08:03:34;15.57;;;13.97;;
39066;SDS011;24821;51.988;6.020;2022-12-04T08:06:01;15.10;;;12.33;;
39066;SDS011;24821;51.988;6.020;2022-12-04T08:08:28;36.87;;;16.17;;
39066;SDS011;24821;51.988;6.020;2022-12-04T08:10:54;19.23;;;15.77;;
39066;SDS011;24821;51.988;6.020;2022-12-04T08:13:19;37.60;;;12.53;;
39066;SDS011;24821;51.988;6.020;2022-12-04T08:15:46;23.57;;;13.07;;
39066;SDS011;24821;51.988;6.020;2022-12-04T08:18:11;14.00;;;12.47;;
39066;SDS011;24821;51.988;6.020;2022-12-04T08:20:37;28.97;;;16.97;;
39066;SDS011;24821;51.988;6.020;2022-12-04T08:23:02;14.10;;;12.40;;
39066;SDS011;24821;51.988;6.020;2022-12-04T08:25:28;17.33;;;13.47;;
39066;SDS011;24821;51.988;6.020;2022-12-04T08:27:53;18.70;;;12.80;;
39066;SDS011;24821;51.988;6.020;2022-12-04T08:30:19;20.50;;;14.53;;
39066;SDS011;24821;51.988;6.020;2022-12-04T08:32:44;21.03;;;16.60;;
39066;SDS011;24821;51.988;6.020;2022-12-04T08:35:10;17.63;;;13.83;;
39066;SDS011;24821;51.988;6.020;2022-12-04T08:37:36;15.73;;;13.97;;
39066;SDS011;24821;51.988;6.020;2022-12-04T08:40:01;17.27;;;13.33;;
39066;SDS011;24821;51.988;6.020;2022-12-04T08:42:27;19.03;;;14.93;;
39066;SDS011;24821;51.988;6.020;2022-12-04T08:44:53;25.53;;;15.30;;
39066;SDS011;24821;51.988;6.020;2022-12-04T08:47:18;18.10;;;14.30;;
39066;SDS011;24821;51.988;6.020;2022-12-04T08:49:44;22.33;;;14.17;;
39066;SDS011;24821;51.988;6.020;2022-12-04T08:52:09;13.07;;;11.43;;
39066;SDS011;24821;51.988;6.020;2022-12-04T08:54:35;15.03;;;13.50;;
39066;SDS011;24821;51.988;6.020;2022-12-04T08:57:01;10.87;;;9.73;;
39066;SDS011;24821;51.988;6.020;2022-12-04T08:59:27;25.63;;;15.93;;
39066;SDS011;24821;51.988;6.020;2022-12-04T09:01:52;18.67;;;12.60;;
39066;SDS011;24821;51.988;6.020;2022-12-04T09:04:18;16.03;;;12.87;;
39066;SDS011;24821;51.988;6.020;2022-12-04T09:06:43;17.87;;;14.00;;
39066;SDS011;24821;51.988;6.020;2022-12-04T09:09:09;12.37;;;10.83;;
39066;SDS011;24821;51.988;6.020;2022-12-04T09:11:34;12.93;;;11.53;;
39066;SDS011;24821;51.988;6.020;2022-12-04T09:14:00;13.33;;;10.90;;
39066;SDS011;24821;51.988;6.020;2022-12-04T09:16:27;13.97;;;11.80;;
39066;SDS011;24821;51.988;6.020;2022-12-04T09:18:53;20.57;;;11.73;;
39066;SDS011;24821;51.988;6.020;2022-12-04T09:21:20;12.67;;;11.37;;
39066;SDS011;24821;51.988;6.020;2022-12-04T09:23:46;23.20;;;13.97;;
39066;SDS011;24821;51.988;6.020;2022-12-04T09:26:23;14.27;;;12.73;;
39066;SDS011;24821;51.988;6.020;2022-12-04T09:28:53;10.50;;;8.97;;
39066;SDS011;24821;51.988;6.020;2022-12-04T09:31:21;13.50;;;12.00;;
39066;SDS011;24821;51.988;6.020;2022-12-04T09:33:47;9.63;;;8.63;;
39066;SDS011;24821;51.988;6.020;2022-12-04T09:36:13;10.53;;;9.47;;
39066;SDS011;24821;51.988;6.020;2022-12-04T09:38:45;18.67;;;8.30;;
39066;SDS011;24821;51.988;6.020;2022-12-04T09:43:57;10.17;;;9.23;;
39066;SDS011;24821;51.988;6.020;2022-12-04T09:46:50;9.53;;;8.43;;
39066;SDS011;24821;51.988;6.020;2022-12-04T09:52:21;9.80;;;8.87;;
39066;SDS011;24821;51.988;6.020;2022-12-04T09:55:14;6.75;;;6.13;;
39066;SDS011;24821;51.988;6.020;2022-12-04T09:57:51;11.30;;;8.63;;
39066;SDS011;24821;51.988;6.020;2022-12-04T10:00:19;11.37;;;7.70;;
39066;SDS011;24821;51.988;6.020;2022-12-04T10:03:04;6.33;;;5.80;;
39066;SDS011;24821;51.988;6.020;2022-12-04T10:08:31;14.47;;;8.17;;
39066;SDS011;24821;51.988;6.020;2022-12-04T10:13:59;9.53;;;6.60;;
39066;SDS011;24821;51.988;6.020;2022-12-04T10:16:31;9.05;;;6.30;;
39066;SDS011;24821;51.988;6.020;2022-12-04T10:22:16;11.10;;;7.07;;
39066;SDS011;24821;51.988;6.020;2022-12-04T10:24:50;15.13;;;9.73;;
39066;SDS011;24821;51.988;6.020;2022-12-04T10:27:28;7.90;;;7.03;;
39066;SDS011;24821;51.988;6.020;2022-12-04T10:30:23;6.97;;;6.37;;
39066;SDS011;24821;51.988;6.020;2022-12-04T10:32:54;8.03;;;6.30;;
39066;SDS011;24821;51.988;6.020;2022-12-04T10:35:24;9.80;;;7.07;;
39066;SDS011;24821;51.988;6.020;2022-12-04T10:37:57;10.00;;;7.20;;
39066;SDS011;24821;51.988;6.020;2022-12-04T10:40:45;9.33;;;8.37;;
39066;SDS011;24821;51.988;6.020;2022-12-04T10:45:44;7.00;;;5.87;;
39066;SDS011;24821;51.988;6.020;2022-12-04T10:48:17;7.33;;;5.40;;
39066;SDS011;24821;51.988;6.020;2022-12-04T10:50:52;9.67;;;7.23;;
39066;SDS011;24821;51.988;6.020;2022-12-04T10:53:17;7.87;;;7.07;;
39066;SDS011;24821;51.988;6.020;2022-12-04T10:55:54;7.10;;;6.40;;
39066;SDS011;24821;51.988;6.020;2022-12-04T10:58:20;7.30;;;6.03;;
39066;SDS011;24821;51.988;6.020;2022-12-04T11:00:57;8.00;;;6.20;;
39066;SDS011;24821;51.988;6.020;2022-12-04T11:03:27;14.67;;;6.23;;
39066;SDS011;24821;51.988;6.020;2022-12-04T11:05:54;6.80;;;5.50;;
39066;SDS011;24821;51.988;6.020;2022-12-04T11:08:37;5.00;;;4.60;;
39066;SDS011;24821;51.988;6.020;2022-12-04T11:11:15;8.50;;;7.00;;
39066;SDS011;24821;51.988;6.020;2022-12-04T11:18:58;8.13;;;6.93;;
39066;SDS011;24821;51.988;6.020;2022-12-04T11:21:25;8.70;;;4.87;;
39066;SDS011;24821;51.988;6.020;2022-12-04T11:23:53;10.93;;;8.17;;
39066;SDS011;24821;51.988;6.020;2022-12-04T11:26:29;5.43;;;5.03;;
39066;SDS011;24821;51.988;6.020;2022-12-04T11:28:57;6.20;;;5.63;;
39066;SDS011;24821;51.988;6.020;2022-12-04T11:31:29;8.80;;;6.47;;
39066;SDS011;24821;51.988;6.020;2022-12-04T11:33:56;9.70;;;6.50;;
39066;SDS011;24821;51.988;6.020;2022-12-04T11:36:30;10.10;;;6.07;;
39066;SDS011;24821;51.988;6.020;2022-12-04T11:41:59;6.20;;;5.70;;
39066;SDS011;24821;51.988;6.020;2022-12-04T11:44:28;13.07;;;6.60;;
39066;SDS011;24821;51.988;6.020;2022-12-04T11:46:56;8.20;;;6.33;;
39066;SDS011;24821;51.988;6.020;2022-12-04T11:49:24;7.77;;;5.53;;
39066;SDS011;24821;51.988;6.020;2022-12-04T11:55:06;10.20;;;5.40;;
39066;SDS011;24821;51.988;6.020;2022-12-04T11:57:42;8.30;;;6.77;;
39066;SDS011;24821;51.988;6.020;2022-12-04T12:00:20;5.70;;;5.13;;
39066;SDS011;24821;51.988;6.020;2022-12-04T12:05:17;6.97;;;6.27;;
39066;SDS011;24821;51.988;6.020;2022-12-04T12:10:49;7.67;;;5.93;;
39066;SDS011;24821;51.988;6.020;2022-12-04T12:16:20;8.77;;;6.53;;
39066;SDS011;24821;51.988;6.020;2022-12-04T12:19:07;12.03;;;4.97;;
39066;SDS011;24821;51.988;6.020;2022-12-04T12:24:22;6.33;;;5.83;;
39066;SDS011;24821;51.988;6.020;2022-12-04T12:32:25;6.47;;;5.90;;
39066;SDS011;24821;51.988;6.020;2022-12-04T12:34:52;11.13;;;7.37;;
39066;SDS011;24821;51.988;6.020;2022-12-04T12:40:41;4.97;;;4.57;;
39066;SDS011;24821;51.988;6.020;2022-12-04T12:42:59;5.97;;;5.03;;
39066;SDS011;24821;51.988;6.020;2022-12-04T12:45:32;4.77;;;4.47;;
39066;SDS011;24821;51.988;6.020;2022-12-04T12:48:19;6.37;;;5.47;;
39066;SDS011;24821;51.988;6.020;2022-12-04T12:50:48;8.73;;;6.38;;
39066;SDS011;24821;51.988;6.020;2022-12-04T12:53:19;9.77;;;4.87;;
39066;SDS011;24821;51.988;6.020;2022-12-04T12:55:50;6.03;;;4.77;;
39066;SDS011;24821;51.988;6.020;2022-12-04T12:58:33;5.97;;;4.43;;
39066;SDS011;24821;51.988;6.020;2022-12-04T13:01:05;4.97;;;4.60;;
39066;SDS011;24821;51.988;6.020;2022-12-04T13:03:56;12.93;;;5.07;;
39066;SDS011;24821;51.988;6.020;2022-12-04T13:06:29;7.53;;;6.63;;
39066;SDS011;24821;51.988;6.020;2022-12-04T13:09:05;4.93;;;4.53;;
39066;SDS011;24821;51.988;6.020;2022-12-04T13:11:34;5.65;;;5.13;;
39066;SDS011;24821;51.988;6.020;2022-12-04T13:14:01;5.40;;;4.60;;
39066;SDS011;24821;51.988;6.020;2022-12-04T13:16:35;4.67;;;4.27;;
39066;SDS011;24821;51.988;6.020;2022-12-04T13:19:20;9.03;;;5.30;;
39066;SDS011;24821;51.988;6.020;2022-12-04T13:27:27;6.32;;;5.80;;
39066;SDS011;24821;51.988;6.020;2022-12-04T13:30:18;9.07;;;4.67;;
39066;SDS011;24821;51.988;6.020;2022-12-04T13:41:05;5.83;;;5.23;;
39066;SDS011;24821;51.988;6.020;2022-12-04T13:43:35;14.83;;;7.90;;
39066;SDS011;24821;51.988;6.020;2022-12-04T13:49:07;6.23;;;5.63;;
39066;SDS011;24821;51.988;6.020;2022-12-04T13:51:39;8.03;;;5.57;;
39066;SDS011;24821;51.988;6.020;2022-12-04T13:56:38;7.90;;;7.17;;
39066;SDS011;24821;51.988;6.020;2022-12-04T14:01:54;8.03;;;7.43;;
39066;SDS011;24821;51.988;6.020;2022-12-04T14:04:22;7.07;;;6.33;;
39066;SDS011;24821;51.988;6.020;2022-12-04T14:06:59;20.70;;;7.87;;
39066;SDS011;24821;51.988;6.020;2022-12-04T14:09:29;8.03;;;7.17;;
39066;SDS011;24821;51.988;6.020;2022-12-04T14:12:03;10.43;;;9.40;;
39066;SDS011;24821;51.988;6.020;2022-12-04T14:14:38;13.37;;;8.17;;
39066;SDS011;24821;51.988;6.020;2022-12-04T14:17:16;12.63;;;8.90;;
39066;SDS011;24821;51.988;6.020;2022-12-04T14:19:44;8.63;;;7.30;;
39066;SDS011;24821;51.988;6.020;2022-12-04T14:22:28;21.40;;;9.03;;
39066;SDS011;24821;51.988;6.020;2022-12-04T14:30:13;11.97;;;8.77;;
39066;SDS011;24821;51.988;6.020;2022-12-04T14:32:40;13.03;;;8.53;;
39066;SDS011;24821;51.988;6.020;2022-12-04T14:35:12;9.17;;;8.30;;
39066;SDS011;24821;51.988;6.020;2022-12-04T14:37:41;13.03;;;11.73;;
39066;SDS011;24821;51.988;6.020;2022-12-04T14:40:21;11.03;;;9.90;;
39066;SDS011;24821;51.988;6.020;2022-12-04T14:42:49;12.50;;;8.77;;
39066;SDS011;24821;51.988;6.020;2022-12-04T14:47:49;11.07;;;8.90;;
39066;SDS011;24821;51.988;6.020;2022-12-04T14:50:29;12.70;;;8.00;;
39066;SDS011;24821;51.988;6.020;2022-12-04T14:53:22;18.13;;;10.40;;
39066;SDS011;24821;51.988;6.020;2022-12-04T14:56:16;13.03;;;10.67;;
39066;SDS011;24821;51.988;6.020;2022-12-04T14:58:55;9.20;;;8.33;;
39066;SDS011;24821;51.988;6.020;2022-12-04T15:01:26;10.73;;;8.57;;
39066;SDS011;24821;51.988;6.020;2022-12-04T15:04:01;16.83;;;10.43;;
39066;SDS011;24821;51.988;6.020;2022-12-04T15:06:49;14.10;;;9.67;;
39066;SDS011;24821;51.988;6.020;2022-12-04T15:09:17;8.20;;;7.53;;
39066;SDS011;24821;51.988;6.020;2022-12-04T15:12:15;15.50;;;9.70;;
39066;SDS011;24821;51.988;6.020;2022-12-04T15:15:03;11.20;;;7.53;;
39066;SDS011;24821;51.988;6.020;2022-12-04T15:23:12;13.87;;;10.47;;
39066;SDS011;24821;51.988;6.020;2022-12-04T15:26:00;12.27;;;11.00;;
39066;SDS011;24821;51.988;6.020;2022-12-04T15:31:22;15.77;;;10.67;;
39066;SDS011;24821;51.988;6.020;2022-12-04T15:34:01;11.77;;;9.53;;
39066;SDS011;24821;51.988;6.020;2022-12-04T15:39:31;13.97;;;11.20;;
39066;SDS011;24821;51.988;6.020;2022-12-04T15:42:05;12.03;;;10.97;;
39066;SDS011;24821;51.988;6.020;2022-12-04T15:44:38;10.70;;;9.50;;
39066;SDS011;24821;51.988;6.020;2022-12-04T15:47:14;19.13;;;10.17;;
39066;SDS011;24821;51.988;6.020;2022-12-04T15:49:44;10.47;;;9.37;;
39066;SDS011;24821;51.988;6.020;2022-12-04T15:52:21;14.13;;;11.33;;
39066;SDS011;24821;51.988;6.020;2022-12-04T15:57:17;14.17;;;10.17;;
39066;SDS011;24821;51.988;6.020;2022-12-04T15:59:57;9.87;;;8.93;;
39066;SDS011;24821;51.988;6.020;2022-12-04T16:05:28;12.17;;;9.73;;
39066;SDS011;24821;51.988;6.020;2022-12-04T16:08:00;11.67;;;9.20;;
39066;SDS011;24821;51.988;6.020;2022-12-04T16:10:54;12.47;;;11.17;;
39066;SDS011;24821;51.988;6.020;2022-12-04T16:13:29;12.90;;;10.63;;
39066;SDS011;24821;51.988;6.020;2022-12-04T16:15:59;12.93;;;8.97;;
39066;SDS011;24821;51.988;6.020;2022-12-04T16:18:38;11.80;;;9.87;;
39066;SDS011;24821;51.988;6.020;2022-12-04T16:21:04;13.83;;;9.97;;
39066;SDS011;24821;51.988;6.020;2022-12-04T16:23:31;12.27;;;7.97;;
39066;SDS011;24821;51.988;6.020;2022-12-04T16:25:57;12.10;;;8.83;;
39066;SDS011;24821;51.988;6.020;2022-12-04T16:28:22;13.53;;;9.57;;
39066;SDS011;24821;51.988;6.020;2022-12-04T16:30:49;14.13;;;8.43;;
39066;SDS011;24821;51.988;6.020;2022-12-04T16:33:18;7.67;;;6.50;;
39066;SDS011;24821;51.988;6.020;2022-12-04T16:35:44;11.73;;;9.67;;
39066;SDS011;24821;51.988;6.020;2022-12-04T16:38:13;10.73;;;9.17;;
39066;SDS011;24821;51.988;6.020;2022-12-04T16:40:40;9.97;;;8.17;;
39066;SDS011;24821;51.988;6.020;2022-12-04T16:43:07;15.80;;;10.57;;
39066;SDS011;24821;51.988;6.020;2022-12-04T16:45:38;10.83;;;9.67;;
39066;SDS011;24821;51.988;6.020;2022-12-04T16:48:09;11.87;;;10.80;;
39066;SDS011;24821;51.988;6.020;2022-12-04T16:50:34;16.47;;;8.40;;
39066;SDS011;24821;51.988;6.020;2022-12-04T16:53:00;10.00;;;8.27;;
39066;SDS011;24821;51.988;6.020;2022-12-04T16:55:36;7.60;;;7.00;;
39066;SDS011;24821;51.988;6.020;2022-12-04T16:58:03;9.63;;;8.67;;
39066;SDS011;24821;51.988;6.020;2022-12-04T17:00:28;8.23;;;7.50;;
39066;SDS011;24821;51.988;6.020;2022-12-04T17:02:54;11.13;;;8.93;;
39066;SDS011;24821;51.988;6.020;2022-12-04T17:05:23;9.20;;;8.33;;
39066;SDS011;24821;51.988;6.020;2022-12-04T17:07:52;9.73;;;8.73;;
39066;SDS011;24821;51.988;6.020;2022-12-04T17:10:18;9.00;;;8.20;;
39066;SDS011;24821;51.988;6.020;2022-12-04T17:12:44;10.40;;;9.23;;